Time;durP1;ratioP1;P1;durP2;ratioP2;P2;SDS_P1;SDS_P2;PMS_P1;PMS_P2;Temp;Humidity;BMP_temperature;BMP_pressure;BME280_temperature;BME280_humidity;BME280_pressure;Samples;Min_cycle;Max_cycle;Signal;HPM_P1;HPM_P2
2022/06/30 00:00:36;;;;;;;41.03;21.30;;;;;;;19.69;100.00;100744.53;5035406;28;20036;-77
2022/06/30 00:03:02;;;;;;;35.67;21.70;;;;;;;19.54;100.00;100742.53;5051927;28;20120;-78
2022/06/30 00:05:28;;;;;;;33.88;22.23;;;;;;;19.60;100.00;100743.72;5053149;28;20075;-75
2022/06/30 00:07:54;;;;;;;35.53;22.15;;;;;;;19.58;100.00;100734.72;5053216;28;20024;-76
2022/06/30 00:10:20;;;;;;;42.28;22.25;;;;;;;19.52;100.00;100729.88;5052122;28;20025;-77
2022/06/30 00:12:46;;;;;;;36.28;22.35;;;;;;;19.44;100.00;100734.44;5051686;28;20043;-75
2022/06/30 00:15:11;;;;;;;46.03;23.90;;;;;;;19.27;100.00;100735.59;5035221;28;20037;-77
2022/06/30 00:17:37;;;;;;;42.58;24.60;;;;;;;19.37;100.00;100744.53;5035122;28;20524;-77
2022/06/30 00:20:03;;;;;;;40.97;24.02;;;;;;;19.29;100.00;100733.47;5052015;28;20029;-77
2022/06/30 00:22:29;;;;;;;47.05;24.23;;;;;;;19.32;100.00;100730.34;5051859;28;20104;-77
2022/06/30 00:24:54;;;;;;;42.70;25.25;;;;;;;19.23;100.00;100729.53;5018986;28;20120;-76
2022/06/30 00:27:20;;;;;;;44.10;24.60;;;;;;;19.16;100.00;100722.09;5034929;28;20470;-76
2022/06/30 00:29:45;;;;;;;43.70;25.60;;;;;;;18.98;100.00;100719.59;5035080;28;20037;-76
2022/06/30 00:32:11;;;;;;;41.95;26.30;;;;;;;18.98;100.00;100722.38;5051545;28;20472;-75
2022/06/30 00:34:36;;;;;;;50.67;26.40;;;;;;;18.93;100.00;100717.34;5051519;28;20495;-75
2022/06/30 00:37:02;;;;;;;53.88;27.77;;;;;;;18.61;100.00;100709.97;5051716;28;20032;-76
2022/06/30 00:39:29;;;;;;;42.58;24.90;;;;;;;18.39;100.00;100717.13;5051562;28;20053;-76
2022/06/30 00:41:55;;;;;;;38.95;24.60;;;;;;;18.42;100.00;100709.34;5052680;28;20040;-76
2022/06/30 00:44:21;;;;;;;43.10;23.92;;;;;;;18.52;100.00;100704.44;5051418;28;20037;-76
2022/06/30 00:46:47;;;;;;;43.42;24.25;;;;;;;18.61;100.00;100712.75;5034720;28;20049;-76
2022/06/30 00:49:13;;;;;;;42.40;26.40;;;;;;;18.63;100.00;100713.44;5051372;28;20028;-76
2022/06/30 00:51:39;;;;;;;42.60;25.58;;;;;;;18.76;100.00;100708.19;5052465;28;20025;-76
2022/06/30 00:54:06;;;;;;;46.72;25.58;;;;;;;18.71;100.00;100711.50;5052587;28;20082;-77
2022/06/30 00:56:34;;;;;;;47.00;27.00;;;;;;;18.60;100.00;100705.47;5052797;28;20115;-77
2022/06/30 00:59:03;;;;;;;39.30;24.60;;;;;;;18.45;100.00;100706.22;5051476;28;20111;-77
2022/06/30 01:01:30;;;;;;;48.58;28.02;;;;;;;18.39;100.00;100701.38;5051369;28;20388;-77
2022/06/30 01:03:56;;;;;;;43.63;25.50;;;;;;;18.35;100.00;100700.00;5052465;28;20025;-77
2022/06/30 01:06:22;;;;;;;48.53;27.92;;;;;;;18.42;100.00;100695.47;5051217;28;20040;-77
2022/06/30 01:08:49;;;;;;;52.50;27.67;;;;;;;18.44;100.00;100704.47;5034636;28;20031;-77
2022/06/30 01:14:01;;;;;;;50.22;28.52;;;;;;;18.40;100.00;100705.88;5051188;28;20041;-77
2022/06/30 01:16:26;;;;;;;53.97;29.25;;;;;;;18.32;100.00;100689.25;5051157;28;20033;-77
2022/06/30 01:18:52;;;;;;;53.80;30.17;;;;;;;18.48;100.00;100710.50;5051171;28;20040;-77
2022/06/30 01:21:17;;;;;;;52.75;30.65;;;;;;;18.54;100.00;100710.69;5052541;28;20362;-77
2022/06/30 01:23:43;;;;;;;64.43;31.90;;;;;;;18.49;100.00;100720.56;5051098;28;20029;-77
2022/06/30 01:26:09;;;;;;;58.85;31.02;;;;;;;18.49;100.00;100728.91;5051134;28;20112;-77
2022/06/30 01:28:34;;;;;;;59.13;31.55;;;;;;;18.44;100.00;100731.34;5052715;28;20053;-76
2022/06/30 01:31:00;;;;;;;51.22;31.27;;;;;;;18.42;100.00;100731.50;5055786;28;20052;-77
2022/06/30 01:33:26;;;;;;;56.08;30.35;;;;;;;18.40;100.00;100732.72;5038127;28;20484;-77
2022/06/30 01:35:53;;;;;;;64.10;32.00;;;;;;;18.26;100.00;100737.06;5054543;28;20048;-77
2022/06/30 01:38:19;;;;;;;62.58;31.95;;;;;;;18.08;100.00;100740.88;5055717;28;20512;-76
2022/06/30 01:40:45;;;;;;;51.97;30.83;;;;;;;18.17;100.00;100739.00;5056002;28;20115;-76
2022/06/30 01:43:12;;;;;;;55.08;30.95;;;;;;;18.19;100.00;100734.16;5054470;28;20139;-77
2022/06/30 01:45:39;;;;;;;64.10;31.40;;;;;;;18.10;100.00;100733.28;5055789;28;20427;-77
2022/06/30 01:48:05;;;;;;;50.30;31.10;;;;;;;18.14;100.00;100734.66;5055541;28;20033;-77
2022/06/30 01:50:31;;;;;;;58.97;32.70;;;;;;;17.83;100.00;100727.00;5055423;28;20033;-77
2022/06/30 01:52:57;;;;;;;68.32;33.25;;;;;;;17.72;100.00;100730.09;5054324;28;20119;-76
2022/06/30 01:55:24;;;;;;;57.80;32.03;;;;;;;17.89;100.00;100727.38;5054138;28;20058;-77
2022/06/30 01:57:50;;;;;;;52.30;30.33;;;;;;;17.88;100.00;100731.22;5054380;28;20147;-77
2022/06/30 02:00:18;;;;;;;56.00;30.80;;;;;;;17.77;100.00;100730.50;5054170;28;20453;-77
2022/06/30 02:02:45;;;;;;;57.55;31.67;;;;;;;17.74;100.00;100724.41;5055649;28;20033;-77
2022/06/30 02:05:11;;;;;;;57.63;31.23;;;;;;;17.83;100.00;100731.69;5037395;28;20389;-77
2022/06/30 02:07:39;;;;;;;63.75;32.33;;;;;;;17.50;100.00;100739.94;5052535;28;20473;-76
2022/06/30 02:10:06;;;;;;;69.68;35.03;;;;;;;17.35;100.00;100742.50;5001601;28;20029;-76
2022/06/30 02:12:47;;;;;;;62.33;34.30;;;;;;;17.44;100.00;100737.84;5033905;28;20041;-76
2022/06/30 02:15:28;;;;;;;57.50;34.75;;;;;;;17.51;100.00;100733.38;5019631;28;20362;-76
2022/06/30 02:17:54;;;;;;;61.58;35.92;;;;;;;17.65;100.00;100742.91;5033963;28;20026;-76
2022/06/30 02:20:23;;;;;;;61.20;32.53;;;;;;;17.53;100.00;100735.97;5035176;28;20477;-75
2022/06/30 02:22:51;;;;;;;65.75;35.58;;;;;;;17.72;100.00;100743.94;5050437;28;20037;-76
2022/06/30 02:25:17;;;;;;;62.45;34.20;;;;;;;17.58;100.00;100737.19;5035022;28;20030;-76
2022/06/30 02:27:42;;;;;;;63.00;36.22;;;;;;;17.62;100.00;100737.72;5050058;28;20107;-76
2022/06/30 02:30:09;;;;;;;59.33;34.40;;;;;;;17.63;100.00;100739.47;5050240;28;20057;-77
2022/06/30 02:32:34;;;;;;;70.97;35.83;;;;;;;17.70;100.00;100739.63;5034754;28;20037;-76
2022/06/30 02:35:01;;;;;;;79.03;35.28;;;;;;;17.73;100.00;100742.94;5017112;28;20033;-76
2022/06/30 02:37:26;;;;;;;76.55;37.17;;;;;;;17.80;100.00;100735.66;5017055;28;20021;-76
2022/06/30 02:39:52;;;;;;;64.97;33.78;;;;;;;17.87;100.00;100737.75;5034153;28;20037;-77
2022/06/30 02:42:18;;;;;;;65.65;36.30;;;;;;;17.96;100.00;100733.97;5033025;28;20029;-76
2022/06/30 02:44:43;;;;;;;68.20;35.47;;;;;;;17.96;100.00;100731.22;5033309;28;20102;-76
2022/06/30 02:47:09;;;;;;;75.28;37.13;;;;;;;17.80;100.00;100730.13;5033409;28;20037;-77
2022/06/30 02:49:36;;;;;;;72.13;36.08;;;;;;;17.60;100.00;100732.34;5034538;28;20037;-77
2022/06/30 02:52:01;;;;;;;64.60;34.65;;;;;;;17.59;100.00;100743.59;5033062;28;20519;-77
2022/06/30 02:54:26;;;;;;;64.28;35.92;;;;;;;17.55;100.00;100733.91;5016634;28;20041;-77
2022/06/30 02:56:52;;;;;;;69.88;35.33;;;;;;;17.58;100.00;100739.09;5049705;28;20044;-77
2022/06/30 02:59:18;;;;;;;74.97;36.45;;;;;;;17.48;100.00;100727.31;5049858;28;20485;-77
2022/06/30 03:01:43;;;;;;;71.25;37.65;;;;;;;17.52;100.00;100731.47;5033336;28;20029;-77
2022/06/30 03:04:09;;;;;;;75.22;36.13;;;;;;;17.36;100.00;100735.06;5034246;28;20389;-78
2022/06/30 03:06:35;;;;;;;76.47;36.30;;;;;;;17.47;100.00;100728.34;5033013;28;20377;-77
2022/06/30 03:09:01;;;;;;;80.35;40.28;;;;;;;17.33;100.00;100722.44;5048296;28;20045;-77
2022/06/30 03:11:27;;;;;;;73.90;38.80;;;;;;;17.34;100.00;100715.00;5036953;28;20029;-77
2022/06/30 03:13:53;;;;;;;69.68;36.83;;;;;;;17.35;100.00;100714.84;5053005;28;20162;-77
2022/06/30 03:16:19;;;;;;;77.18;38.50;;;;;;;17.11;100.00;100723.06;5052665;28;20032;-77
2022/06/30 03:18:46;;;;;;;75.82;38.35;;;;;;;17.18;100.00;100732.41;5036177;28;20044;-77
2022/06/30 03:21:12;;;;;;;70.72;39.63;;;;;;;17.38;100.00;100728.34;5053854;28;20430;-77
2022/06/30 03:23:38;;;;;;;77.07;38.17;;;;;;;17.41;100.00;100732.66;5052599;28;20128;-76
2022/06/30 03:26:04;;;;;;;77.85;39.10;;;;;;;17.38;100.00;100733.88;5052468;28;20037;-76
2022/06/30 03:28:30;;;;;;;72.75;38.10;;;;;;;17.48;100.00;100741.13;5052549;28;20056;-76
2022/06/30 03:30:56;;;;;;;71.88;37.30;;;;;;;17.45;100.00;100721.06;5052644;28;20044;-76
2022/06/30 03:33:21;;;;;;;72.55;36.17;;;;;;;17.49;100.00;100718.81;5052712;28;20033;-76
2022/06/30 03:35:47;;;;;;;70.82;37.15;;;;;;;17.53;100.00;100719.34;5053763;28;20041;-76
2022/06/30 03:38:14;;;;;;;64.30;36.42;;;;;;;17.56;100.00;100727.31;5035856;28;20486;-76
2022/06/30 03:40:40;;;;;;;70.25;36.28;;;;;;;17.40;100.00;100731.78;5053515;28;20025;-76
2022/06/30 03:43:06;;;;;;;65.65;36.55;;;;;;;17.23;100.00;100718.94;5052380;28;20072;-76
2022/06/30 03:45:33;;;;;;;71.35;35.47;;;;;;;17.30;100.00;100722.78;5019339;28;20036;-76
2022/06/30 03:48:03;;;;;;;68.57;36.47;;;;;;;17.07;100.00;100715.09;5035445;28;20477;-76
2022/06/30 03:50:30;;;;;;;67.28;35.25;;;;;;;17.10;100.00;100711.09;5035451;28;20388;-76
2022/06/30 03:52:56;;;;;;;72.63;37.22;;;;;;;17.11;100.00;100712.00;5051909;28;20029;-76
2022/06/30 03:55:22;;;;;;;64.88;37.83;;;;;;;17.24;100.00;100712.38;5053527;28;20041;-77
2022/06/30 03:57:48;;;;;;;69.63;36.33;;;;;;;17.13;100.00;100716.31;5052414;28;20095;-77
2022/06/30 04:00:14;;;;;;;67.22;35.58;;;;;;;17.20;100.00;100710.97;5052001;28;20166;-76
2022/06/30 04:02:39;;;;;;;73.22;37.70;;;;;;;17.21;100.00;100712.72;5051913;28;20032;-76
2022/06/30 04:05:06;;;;;;;65.95;35.63;;;;;;;17.29;100.00;100703.59;5035154;28;20041;-76
2022/06/30 04:07:31;;;;;;;71.40;37.80;;;;;;;17.34;100.00;100710.31;5052108;28;20091;-76
2022/06/30 04:09:57;;;;;;;63.67;36.08;;;;;;;17.29;100.00;100712.75;5051785;28;20032;-76
2022/06/30 04:12:23;;;;;;;69.15;36.15;;;;;;;17.35;100.00;100713.94;5051852;28;20025;-77
2022/06/30 04:14:49;;;;;;;70.40;37.00;;;;;;;17.36;100.00;100711.00;5051862;28;20028;-76
2022/06/30 04:17:14;;;;;;;71.88;35.72;;;;;;;17.36;100.00;100710.16;5053114;28;20037;-77
2022/06/30 04:19:40;;;;;;;72.63;36.05;;;;;;;17.31;100.00;100712.56;5035126;28;20029;-76
2022/06/30 04:22:06;;;;;;;68.05;38.08;;;;;;;17.16;100.00;100704.91;5051870;28;20054;-76
2022/06/30 04:24:32;;;;;;;73.70;38.97;;;;;;;17.10;100.00;100711.09;5035760;28;20033;-76
2022/06/30 04:26:57;;;;;;;73.13;40.35;;;;;;;17.04;100.00;100701.59;5030964;28;20065;-76
2022/06/30 04:29:23;;;;;;;75.40;38.88;;;;;;;17.08;100.00;100710.41;4998977;28;20481;-76
2022/06/30 04:34:32;;;;;;;72.25;39.08;;;;;;;17.22;100.00;100704.25;5031953;28;20095;-76
2022/06/30 04:36:58;;;;;;;73.07;39.85;;;;;;;17.18;100.00;100715.81;5031681;28;20432;-76
2022/06/30 04:39:23;;;;;;;78.40;40.17;;;;;;;17.36;100.00;100715.69;5031891;28;20037;-76
2022/06/30 04:41:50;;;;;;;74.68;38.25;;;;;;;17.54;100.00;100719.19;5032906;28;20393;-76
2022/06/30 04:44:16;;;;;;;66.18;35.85;;;;;;;17.63;100.00;100715.41;5031605;28;20025;-76
2022/06/30 04:46:41;;;;;;;73.78;37.88;;;;;;;17.66;100.00;100719.75;5031647;28;20110;-76
2022/06/30 04:49:07;;;;;;;72.63;36.78;;;;;;;17.76;100.00;100717.66;5031654;28;20040;-76
2022/06/30 04:51:33;;;;;;;72.20;37.78;;;;;;;17.86;100.00;100716.63;5031487;28;20378;-76
2022/06/30 04:53:58;;;;;;;64.03;33.85;;;;;;;17.94;100.00;100717.53;5031525;28;20404;-76
2022/06/30 04:56:24;;;;;;;69.18;34.22;;;;;;;18.03;100.00;100725.84;5032651;28;20404;-76
2022/06/30 04:58:50;;;;;;;60.92;30.98;;;;;;;18.20;100.00;100727.56;5031450;28;20040;-77
2022/06/30 05:01:15;;;;;;;54.67;30.48;;;;;;;18.28;100.00;100726.66;5015026;28;20032;-77
2022/06/30 05:03:41;;;;;;;55.17;28.05;;;;;;;18.40;100.00;100735.47;5032189;28;20038;-76
2022/06/30 05:06:07;;;;;;;59.00;27.80;;;;;;;18.48;100.00;100724.38;5036378;28;20438;-76
2022/06/30 05:08:34;;;;;;;55.40;28.35;;;;;;;18.57;100.00;100730.78;5045627;28;20052;-76
2022/06/30 05:11:00;;;;;;;47.95;26.13;;;;;;;18.74;100.00;100729.69;5055016;28;20437;-76
2022/06/30 05:13:26;;;;;;;53.72;26.02;;;;;;;18.82;100.00;100726.88;5055003;28;20060;-76
2022/06/30 05:15:52;;;;;;;50.40;25.48;;;;;;;18.85;100.00;100720.16;5055103;28;20451;-77
2022/06/30 05:18:17;;;;;;;57.25;25.35;;;;;;;18.83;100.00;100741.63;5054908;28;20037;-76
2022/06/30 05:20:43;;;;;;;60.30;26.00;;;;;;;19.00;100.00;100736.91;5054872;28;20465;-76
2022/06/30 05:23:09;;;;;;;49.13;27.50;;;;;;;19.12;100.00;100751.25;5021827;28;20476;-76
2022/06/30 05:28:21;;;;;;;57.10;29.27;;;;;;;19.50;100.00;100755.06;5055935;28;20069;-77
2022/06/30 05:30:50;;;;;;;50.17;29.50;;;;;;;19.53;100.00;100737.16;5055810;28;20103;-77
2022/06/30 05:33:19;;;;;;;49.83;28.27;;;;;;;19.79;100.00;100740.50;5005377;28;20025;-76
2022/06/30 05:35:49;;;;;;;49.47;28.48;;;;;;;19.80;100.00;100739.44;5054514;28;20369;-77
2022/06/30 05:38:15;;;;;;;53.58;27.63;;;;;;;19.90;100.00;100739.19;5056452;28;20029;-77
2022/06/30 05:40:41;;;;;;;55.92;27.35;;;;;;;20.12;100.00;100740.22;5054779;28;20037;-77
2022/06/30 05:43:08;;;;;;;52.95;26.80;;;;;;;20.10;100.00;100733.13;5055849;28;20377;-77
2022/06/30 05:45:33;;;;;;;45.78;27.73;;;;;;;19.96;100.00;100734.81;5055785;28;20029;-78
2022/06/30 05:47:59;;;;;;;52.25;28.52;;;;;;;20.09;100.00;100734.19;5054723;28;20400;-77
2022/06/30 05:50:24;;;;;;;50.92;26.67;;;;;;;20.86;100.00;100719.16;5054235;28;20037;-77
2022/06/30 05:52:51;;;;;;;56.13;27.58;;;;;;;20.83;100.00;100720.41;5037540;28;20084;-78
2022/06/30 05:55:18;;;;;;;49.92;27.05;;;;;;;20.68;100.00;100728.75;5038002;28;20033;-78
2022/06/30 05:57:54;;;;;;;55.03;27.83;;;;;;;20.76;100.00;100713.91;5054320;28;20043;-76
2022/06/30 06:00:21;;;;;;;47.65;27.92;;;;;;;20.66;100.00;100721.63;5038141;28;20029;-76
2022/06/30 06:02:47;;;;;;;51.42;28.55;;;;;;;20.49;100.00;100721.78;5055322;28;20040;-77
2022/06/30 06:05:13;;;;;;;43.78;27.50;;;;;;;20.56;100.00;100731.13;5037630;28;20033;-76
2022/06/30 06:07:38;;;;;;;46.30;26.90;;;;;;;20.86;100.00;100722.81;5054067;28;20029;-76
2022/06/30 06:10:05;;;;;;;47.25;26.90;;;;;;;20.90;100.00;100717.72;5037626;28;20369;-77
2022/06/30 06:12:30;;;;;;;76.32;28.30;;;;;;;20.73;100.00;100728.19;5037395;28;20048;-76
2022/06/30 06:14:55;;;;;;;46.80;26.52;;;;;;;21.56;100.00;100728.88;5054067;28;20040;-76
2022/06/30 06:17:21;;;;;;;49.25;27.23;;;;;;;21.44;100.00;100738.75;5053944;28;20041;-76
2022/06/30 06:19:46;;;;;;;44.60;26.40;;;;;;;21.20;100.00;100739.94;5053861;28;20045;-76
2022/06/30 06:22:12;;;;;;;41.72;25.33;;;;;;;22.67;100.00;100738.69;5055007;28;20025;-76
2022/06/30 06:24:37;;;;;;;51.55;26.75;;;;;;;22.18;100.00;100744.03;5053805;28;20144;-76
2022/06/30 06:27:03;;;;;;;47.15;24.88;;;;;;;22.46;100.00;100734.03;5055028;28;20064;-76
2022/06/30 06:29:29;;;;;;;40.03;25.23;;;;;;;22.76;100.00;100738.31;5036633;28;20068;-77
2022/06/30 06:31:55;;;;;;;40.63;24.48;;;;;;;22.60;100.00;100735.84;5036902;28;20037;-77
2022/06/30 06:34:20;;;;;;;44.85;26.90;;;;;;;22.21;100.00;100742.78;5054780;28;20100;-77
2022/06/30 06:36:46;;;;;;;47.63;25.23;;;;;;;23.22;100.00;100755.56;5054716;28;20033;-77
2022/06/30 06:39:11;;;;;;;43.60;25.05;;;;;;;23.70;100.00;100754.69;5053448;28;20029;-77
2022/06/30 06:41:37;;;;;;;53.08;26.15;;;;;;;23.18;100.00;100755.13;5053394;28;20025;-77
2022/06/30 06:44:03;;;;;;;46.83;26.98;;;;;;;22.66;100.00;100746.19;5053434;28;20047;-77
2022/06/30 06:46:28;;;;;;;55.85;29.25;;;;;;;22.75;100.00;100753.34;5036552;28;20040;-77
2022/06/30 06:48:55;;;;;;;51.95;28.70;;;;;;;23.24;100.00;100759.03;5054431;28;20036;-77
2022/06/30 06:51:20;;;;;;;48.83;30.15;;;;;;;23.32;100.00;100761.66;5054448;28;20045;-77
2022/06/30 06:53:47;;;;;;;44.28;26.73;;;;;;;23.95;100.00;100774.56;5053144;28;20039;-77
2022/06/30 06:56:13;;;;;;;52.08;29.65;;;;;;;23.48;100.00;100768.78;5054528;28;20029;-77
2022/06/30 06:58:38;;;;;;;52.20;29.83;;;;;;;23.93;100.00;100766.38;5053119;28;20041;-77
2022/06/30 07:01:04;;;;;;;51.30;30.67;;;;;;;24.05;100.00;100775.00;5053018;28;20086;-77
2022/06/30 07:03:31;;;;;;;52.78;30.13;;;;;;;24.18;100.00;100772.22;5054372;28;20029;-77
2022/06/30 07:05:57;;;;;;;52.17;32.67;;;;;;;24.20;100.00;100769.22;5054086;28;20163;-77
2022/06/30 07:08:23;;;;;;;52.65;32.58;;;;;;;23.89;100.00;100772.59;5052870;28;20112;-77
2022/06/30 07:10:49;;;;;;;49.83;32.38;;;;;;;23.45;100.00;100764.50;5052820;28;20392;-77
2022/06/30 07:13:14;;;;;;;52.50;33.47;;;;;;;23.54;100.00;100779.13;5052782;28;20514;-77
2022/06/30 07:15:40;;;;;;;65.15;34.45;;;;;;;23.57;100.00;100778.72;5052732;28;20037;-77
2022/06/30 07:18:05;;;;;;;62.03;32.38;;;;;;;24.47;100.00;100777.63;5052586;28;20029;-77
2022/06/30 07:20:31;;;;;;;52.75;32.13;;;;;;;24.49;100.00;100781.94;5036382;28;20078;-77
2022/06/30 07:22:56;;;;;;;55.40;30.58;;;;;;;24.49;100.00;100786.69;5053908;28;20037;-77
2022/06/30 07:25:22;;;;;;;52.78;28.92;;;;;;;24.14;100.00;100792.47;5052540;28;20461;-77
2022/06/30 07:27:47;;;;;;;48.17;28.80;;;;;;;24.72;100.00;100803.06;5051771;28;20047;-77
2022/06/30 07:30:13;;;;;;;48.70;26.08;;;;;;;24.66;100.00;100804.81;5053600;28;20044;-77
2022/06/30 07:32:38;;;;;;;57.30;27.50;;;;;;;24.67;100.00;100812.09;5053571;28;20496;-77
2022/06/30 07:35:06;;;;;;;38.33;23.77;;;;;;;24.97;100.00;100819.19;5053631;28;20029;-77
2022/06/30 07:37:37;;;;;;;48.42;22.95;;;;;;;24.18;100.00;100811.38;5053506;28;20048;-77
2022/06/30 07:40:02;;;;;;;39.33;21.73;;;;;;;24.63;100.00;100832.34;5053643;28;20079;-77
2022/06/30 07:42:28;;;;;;;42.72;21.80;;;;;;;23.68;100.00;100827.59;5053485;28;20056;-77
2022/06/30 07:44:53;;;;;;;41.45;20.90;;;;;;;24.21;100.00;100832.50;5052196;28;20489;-77
2022/06/30 07:47:19;;;;;;;41.75;19.90;;;;;;;24.13;100.00;100832.69;5053439;28;20147;-77
2022/06/30 07:49:44;;;;;;;36.15;18.65;;;;;;;24.19;100.00;100840.25;5053230;28;20115;-77
2022/06/30 07:52:09;;;;;;;29.65;18.08;;;;;;;25.20;100.00;100843.94;5053418;28;20068;-77
2022/06/30 07:54:35;;;;;;;37.67;17.67;;;;;;;25.33;100.00;100835.53;5051983;28;20519;-76
2022/06/30 07:57:00;;;;;;;34.85;18.00;;;;;;;25.33;100.00;100848.69;5052105;28;20111;-77
2022/06/30 07:59:26;;;;;;;38.95;18.50;;;;;;;24.84;100.00;100836.88;5035583;28;20510;-77
2022/06/30 08:01:52;;;;;;;28.17;17.23;;;;;;;25.04;100.00;100850.84;5052037;28;20392;-77
2022/06/30 08:04:17;;;;;;;30.15;16.75;;;;;;;25.21;100.00;100831.66;5053116;28;20037;-77
2022/06/30 08:06:44;;;;;;;30.17;16.45;;;;;;;25.25;100.00;100841.34;5053147;28;20048;-77
2022/06/30 08:09:10;;;;;;;36.20;16.00;;;;;;;25.64;100.00;100831.13;5051812;28;20033;-77
2022/06/30 08:11:38;;;;;;;31.73;16.38;;;;;;;25.22;100.00;100828.63;5051852;28;20037;-77
2022/06/30 08:14:04;;;;;;;33.22;16.25;;;;;;;25.01;100.00;100821.34;5035138;28;20123;-77
2022/06/30 08:16:29;;;;;;;34.65;17.05;;;;;;;24.93;100.00;100824.38;5051777;28;20029;-77
2022/06/30 08:18:55;;;;;;;38.00;16.73;;;;;;;25.47;100.00;100819.53;5053273;28;20150;-77
2022/06/30 08:21:21;;;;;;;31.08;16.20;;;;;;;25.49;100.00;100820.16;5051961;28;20032;-77
2022/06/30 08:23:46;;;;;;;32.45;16.65;;;;;;;26.34;96.92;100821.91;5053077;28;20206;-77
2022/06/30 08:26:12;;;;;;;38.63;16.00;;;;;;;26.09;100.00;100821.84;5052980;28;20110;-77
2022/06/30 08:28:37;;;;;;;30.83;14.25;;;;;;;26.15;100.00;100832.19;5052589;28;20045;-77
2022/06/30 08:31:03;;;;;;;30.73;15.82;;;;;;;26.02;100.00;100821.88;5052859;28;20064;-77
2022/06/30 08:33:29;;;;;;;34.90;15.98;;;;;;;25.21;100.00;100828.84;5051592;28;20499;-77
2022/06/30 08:35:54;;;;;;;33.40;16.10;;;;;;;25.56;100.00;100828.56;5051735;28;20040;-77
2022/06/30 08:38:21;;;;;;;31.02;14.18;;;;;;;26.01;100.00;100814.56;5053087;28;20036;-77
2022/06/30 08:43:34;;;;;;;25.58;13.18;;;;;;;26.12;100.00;100815.78;5055966;28;20480;-77
2022/06/30 08:46:01;;;;;;;26.75;12.68;;;;;;;27.02;96.96;100823.94;5055629;28;20033;-77
2022/06/30 08:48:28;;;;;;;28.98;14.00;;;;;;;26.52;96.00;100827.59;5056676;28;20342;-77
2022/06/30 08:50:59;;;;;;;28.55;13.77;;;;;;;25.73;100.00;100829.78;5055348;28;20031;-77
2022/06/30 08:53:30;;;;;;;30.23;14.00;;;;;;;26.82;94.55;100826.94;5055513;28;20029;-77
2022/06/30 08:55:56;;;;;;;21.48;12.40;;;;;;;26.88;96.04;100833.59;5056669;28;20033;-77
2022/06/30 08:58:22;;;;;;;25.98;11.38;;;;;;;27.10;93.66;100834.88;5038796;28;20437;-77
2022/06/30 09:00:51;;;;;;;31.00;12.95;;;;;;;26.44;93.35;100839.13;5038820;28;20082;-77
2022/06/30 09:03:17;;;;;;;28.23;11.25;;;;;;;26.80;91.78;100833.91;5056490;28;20028;-77
2022/06/30 09:05:46;;;;;;;38.58;12.30;;;;;;;26.59;93.03;100825.59;5056385;28;20039;-77
2022/06/30 09:08:13;;;;;;;22.77;12.30;;;;;;;27.39;86.46;100828.78;5055139;28;20036;-77
2022/06/30 09:10:54;;;;;;;21.70;10.43;;;;;;;26.88;92.56;100823.22;5055337;28;20030;-77
2022/06/30 09:13:22;;;;;;;21.65;10.38;;;;;;;26.90;89.22;100829.47;5055183;28;20075;-77
2022/06/30 09:15:49;;;;;;;30.45;11.25;;;;;;;27.31;89.03;100825.16;5054987;28;20388;-77
2022/06/30 09:18:26;;;;;;;31.20;10.32;;;;;;;26.80;89.82;100828.28;5056340;28;20052;-77
2022/06/30 09:20:52;;;;;;;29.85;11.35;;;;;;;26.63;93.41;100820.41;5038499;28;20132;-77
2022/06/30 09:23:28;;;;;;;27.70;10.65;;;;;;;26.65;90.24;100823.84;5056228;28;20040;-77
2022/06/30 09:25:59;;;;;;;29.52;9.88;;;;;;;27.86;83.41;100823.44;5056345;28;20120;-77
2022/06/30 09:28:47;;;;;;;24.03;9.40;;;;;;;27.54;87.51;100819.94;5054833;28;20041;-77
2022/06/30 09:31:15;;;;;;;18.42;8.90;;;;;;;27.52;87.11;100828.63;5055975;28;20330;-77
2022/06/30 09:33:46;;;;;;;21.00;9.70;;;;;;;27.47;87.72;100826.50;5055993;28;20528;-77
2022/06/30 09:36:26;;;;;;;25.70;10.55;;;;;;;27.56;86.14;100827.03;5054797;28;20120;-77
2022/06/30 09:39:05;;;;;;;22.67;10.57;;;;;;;27.07;89.00;100828.88;5055928;28;20037;-77
2022/06/30 09:41:32;;;;;;;19.88;11.00;;;;;;;26.80;94.19;100826.31;5055811;28;20488;-77
2022/06/30 09:43:58;;;;;;;20.35;9.25;;;;;;;26.96;89.19;100824.88;5054574;28;20037;-77
2022/06/30 09:46:24;;;;;;;32.08;11.20;;;;;;;27.04;89.11;100833.00;5054916;28;20102;-77
2022/06/30 09:48:50;;;;;;;30.73;11.30;;;;;;;27.02;88.81;100832.38;5055689;28;20036;-77
2022/06/30 09:51:17;;;;;;;21.13;8.70;;;;;;;27.54;86.81;100823.63;5055154;28;20037;-77
2022/06/30 09:53:42;;;;;;;28.77;10.23;;;;;;;28.08;81.54;100828.59;5054381;28;20039;-77
2022/06/30 09:56:15;;;;;;;27.88;9.65;;;;;;;26.94;89.64;100819.50;5055556;28;20033;-77
2022/06/30 09:58:44;;;;;;;21.85;8.90;;;;;;;27.11;90.98;100830.97;5054368;28;20482;-77
2022/06/30 10:01:10;;;;;;;25.13;8.85;;;;;;;27.26;85.10;100827.78;5055468;28;20029;-77
2022/06/30 10:03:47;;;;;;;19.70;10.07;;;;;;;26.69;88.61;100827.91;5055538;28;20029;-77
2022/06/30 10:06:14;;;;;;;28.58;9.88;;;;;;;26.30;91.62;100829.06;5054101;28;20396;-77
2022/06/30 10:08:40;;;;;;;25.17;9.32;;;;;;;26.59;90.63;100827.53;5055365;28;20423;-77
2022/06/30 10:11:07;;;;;;;20.33;8.07;;;;;;;27.18;87.82;100821.63;5054110;28;20391;-77
2022/06/30 10:13:38;;;;;;;19.55;7.43;;;;;;;27.21;86.80;100827.63;5055224;28;20024;-77
2022/06/30 10:16:05;;;;;;;16.90;7.15;;;;;;;27.64;83.62;100820.25;5054086;28;20029;-77
2022/06/30 10:18:35;;;;;;;21.23;6.78;;;;;;;27.71;84.20;100821.00;5053964;28;20044;-77
2022/06/30 10:21:02;;;;;;;16.92;6.30;;;;;;;27.54;83.83;100823.63;5053957;28;20021;-77
2022/06/30 10:23:28;;;;;;;22.55;6.97;;;;;;;27.46;83.21;100832.38;5053903;28;20157;-77
2022/06/30 10:25:54;;;;;;;17.17;6.22;;;;;;;28.03;83.80;100829.28;5054985;28;20493;-77
2022/06/30 10:28:22;;;;;;;17.38;7.38;;;;;;;28.24;80.97;100833.53;5053326;28;20576;-77
2022/06/30 10:31:14;;;;;;;16.20;6.03;;;;;;;28.00;82.62;100833.44;5054911;28;20033;-77
2022/06/30 10:33:58;;;;;;;16.40;6.40;;;;;;;27.73;81.45;100830.09;5053630;28;20488;-77
2022/06/30 10:36:39;;;;;;;17.42;6.82;;;;;;;27.99;79.62;100830.84;5053584;28;20116;-77
2022/06/30 10:39:37;;;;;;;20.02;7.20;;;;;;;28.33;79.78;100822.78;5054774;28;20029;-75
2022/06/30 10:42:03;;;;;;;23.75;9.50;;;;;;;28.33;80.98;100820.81;5053217;28;20476;-76
2022/06/30 10:44:31;;;;;;;18.85;7.10;;;;;;;28.13;79.19;100826.75;5053543;28;20040;-76
2022/06/30 10:46:57;;;;;;;23.20;9.35;;;;;;;27.82;79.77;100825.00;5053379;28;20044;-76
2022/06/30 10:49:26;;;;;;;16.33;7.15;;;;;;;27.98;83.00;100827.19;5053617;28;20032;-76
2022/06/30 10:52:19;;;;;;;20.63;8.98;;;;;;;27.89;80.05;100820.13;5054426;28;20036;-76
2022/06/30 10:54:46;;;;;;;17.02;7.78;;;;;;;28.41;78.96;100826.09;5053964;28;20504;-75
2022/06/30 10:57:12;;;;;;;21.02;9.32;;;;;;;28.11;77.93;100825.28;5053211;28;20112;-75
2022/06/30 10:59:43;;;;;;;21.30;8.63;;;;;;;28.32;81.47;100823.88;5054330;28;20527;-76
2022/06/30 11:02:09;;;;;;;20.73;8.10;;;;;;;27.97;80.39;100822.63;5052164;28;20158;-76
2022/06/30 11:04:36;;;;;;;24.70;8.50;;;;;;;28.60;76.85;100820.44;5054265;28;20028;-76
2022/06/30 11:07:29;;;;;;;24.85;8.18;;;;;;;28.19;80.96;100813.69;5036606;28;20439;-76
2022/06/30 11:09:59;;;;;;;21.75;8.43;;;;;;;28.00;82.12;100813.72;5053005;28;20155;-76
2022/06/30 11:12:37;;;;;;;15.50;7.85;;;;;;;28.40;83.25;100813.13;5036283;28;20029;-75
2022/06/30 11:15:03;;;;;;;19.65;8.15;;;;;;;28.21;86.04;100817.97;5052909;28;20043;-76